createdAt,value
2019-05-22T00:01:51.318Z,15.50
2019-05-22T00:04:25.676Z,15.60
2019-05-22T00:06:58.437Z,15.60
2019-05-22T00:09:30.814Z,15.60
2019-05-22T00:12:00.570Z,15.60
2019-05-22T00:14:32.148Z,15.60
2019-05-22T00:17:03.098Z,15.60
2019-05-22T00:19:33.810Z,15.60
2019-05-22T00:22:11.554Z,15.60
2019-05-22T00:24:44.239Z,15.60
2019-05-22T00:27:16.054Z,15.60
2019-05-22T00:29:47.081Z,15.70
2019-05-22T00:32:17.945Z,15.70
2019-05-22T00:34:48.605Z,15.70
2019-05-22T00:37:18.710Z,15.60
2019-05-22T00:39:48.424Z,15.60
2019-05-22T00:42:19.039Z,15.60
2019-05-22T00:44:48.697Z,15.60
2019-05-22T00:47:19.962Z,15.60
2019-05-22T00:49:52.954Z,15.60
2019-05-22T00:52:44.811Z,15.50
2019-05-22T00:55:31.307Z,15.50
2019-05-22T00:58:02.982Z,15.50
2019-05-22T01:00:44.916Z,15.50
2019-05-22T01:03:16.935Z,15.50
2019-05-22T01:05:48.350Z,15.50
2019-05-22T01:08:18.202Z,15.50
2019-05-22T01:10:50.933Z,15.50
2019-05-22T01:13:22.005Z,15.50
2019-05-22T01:15:52.704Z,15.50
2019-05-22T01:18:25.531Z,15.50
2019-05-22T01:20:58.613Z,15.50
2019-05-22T01:23:30.443Z,15.50
2019-05-22T01:26:01.253Z,15.50
2019-05-22T01:28:33.506Z,15.50
2019-05-22T01:31:08.980Z,15.50
2019-05-22T01:33:41.604Z,15.50
2019-05-22T01:36:14.775Z,15.50
2019-05-22T01:38:46.046Z,15.50
2019-05-22T01:41:19.914Z,15.60
2019-05-22T01:43:51.271Z,15.50
2019-05-22T01:46:21.984Z,15.50
2019-05-22T01:48:55.753Z,15.60
2019-05-22T01:51:25.574Z,15.60
2019-05-22T01:53:55.925Z,15.60
2019-05-22T01:56:27.138Z,15.60
2019-05-22T01:58:58.140Z,15.60
2019-05-22T02:01:29.831Z,15.60
2019-05-22T02:04:00.216Z,15.60
2019-05-22T02:06:30.452Z,15.70
2019-05-22T02:09:13.634Z,15.70
2019-05-22T02:11:46.393Z,15.60
2019-05-22T02:14:18.215Z,15.70
2019-05-22T02:16:56.849Z,15.70
2019-05-22T02:19:21.046Z,15.70
2019-05-22T02:21:51.962Z,15.60
2019-05-22T02:24:23.116Z,15.70
2019-05-22T02:26:54.323Z,15.70
2019-05-22T02:29:24.262Z,15.60
2019-05-22T02:31:58.039Z,15.60
2019-05-22T02:34:28.322Z,15.70
2019-05-22T02:36:58.523Z,15.60
2019-05-22T02:39:32.832Z,15.60
2019-05-22T02:42:09.515Z,15.70
2019-05-22T02:44:39.275Z,15.70
2019-05-22T02:47:19.954Z,15.70
2019-05-22T02:49:43.155Z,15.70
2019-05-22T02:52:14.826Z,15.70
2019-05-22T02:54:44.159Z,15.60
2019-05-22T02:57:13.810Z,15.60
2019-05-22T02:59:43.519Z,15.60
2019-05-22T03:02:14.459Z,15.70
2019-05-22T03:04:56.243Z,15.70
2019-05-22T03:07:26.124Z,15.70
2019-05-22T03:09:56.618Z,15.70
2019-05-22T03:12:28.539Z,15.60
2019-05-22T03:15:01.234Z,15.60
2019-05-22T03:17:31.162Z,15.60
2019-05-22T03:20:04.628Z,15.60
2019-05-22T03:22:44.447Z,15.70
2019-05-22T03:25:16.274Z,15.70
2019-05-22T03:27:49.266Z,15.60
2019-05-22T03:30:22.249Z,15.60
2019-05-22T03:32:53.770Z,15.60
2019-05-22T03:35:26.292Z,15.60
2019-05-22T03:37:57.174Z,15.60
2019-05-22T03:40:28.928Z,15.60
2019-05-22T03:43:02.115Z,15.60
2019-05-22T03:45:32.833Z,15.60
2019-05-22T03:48:05.047Z,15.70
2019-05-22T03:50:36.018Z,15.70
2019-05-22T03:53:18.071Z,15.70
2019-05-22T03:55:49.024Z,15.70
2019-05-22T03:58:19.719Z,15.80
2019-05-22T04:00:52.706Z,15.80
2019-05-22T04:03:24.316Z,15.80
2019-05-22T04:05:54.232Z,15.80
2019-05-22T04:08:26.742Z,15.80
2019-05-22T04:10:59.970Z,15.90
2019-05-22T04:13:30.974Z,15.90
2019-05-22T04:16:02.265Z,15.90
2019-05-22T04:18:32.699Z,15.90
2019-05-22T04:21:03.310Z,15.90
2019-05-22T04:23:37.881Z,15.90
2019-05-22T04:26:09.541Z,15.90
2019-05-22T04:28:40.159Z,15.80
2019-05-22T04:31:09.822Z,15.80
2019-05-22T04:33:40.129Z,15.80
2019-05-22T04:36:10.483Z,15.80
2019-05-22T04:38:41.507Z,15.80
2019-05-22T04:41:11.758Z,15.80
2019-05-22T04:43:41.774Z,15.80
2019-05-22T04:46:13.336Z,15.70
2019-05-22T04:48:46.183Z,15.70
2019-05-22T04:51:26.570Z,15.70
2019-05-22T04:53:57.451Z,15.60
2019-05-22T04:56:28.809Z,15.60
2019-05-22T04:58:59.634Z,15.60
2019-05-22T05:01:31.010Z,15.60
2019-05-22T05:04:01.531Z,15.60
2019-05-22T05:06:33.370Z,15.60
2019-05-22T05:09:03.989Z,15.60
2019-05-22T05:11:34.205Z,15.60
2019-05-22T05:14:03.963Z,15.60
2019-05-22T05:16:33.687Z,15.60
2019-05-22T05:19:03.880Z,15.60
2019-05-22T05:21:33.757Z,15.70
2019-05-22T05:24:03.887Z,15.90
2019-05-22T05:26:34.640Z,16.10
2019-05-22T05:29:04.933Z,16.20
2019-05-22T05:31:35.510Z,16.30
2019-05-22T05:34:13.975Z,16.30
2019-05-22T05:36:44.839Z,16.40
2019-05-22T05:39:33.925Z,16.30
2019-05-22T05:42:03.675Z,16.30
2019-05-22T05:44:33.893Z,16.30
2019-05-22T05:47:04.839Z,16.30
2019-05-22T05:49:35.669Z,16.20
2019-05-22T05:52:07.135Z,16.20
2019-05-22T05:54:36.958Z,16.20
2019-05-22T05:57:32.083Z,16.20
2019-05-22T06:00:05.206Z,16.20
2019-05-22T06:02:35.446Z,16.20
2019-05-22T06:05:06.897Z,16.20
2019-05-22T06:07:38.191Z,16.10
2019-05-22T06:10:29.465Z,16.10
2019-05-22T06:13:00.511Z,16.10
2019-05-22T06:15:47.231Z,16.10
2019-05-22T06:18:34.771Z,16.00
2019-05-22T06:21:07.386Z,16.00
2019-05-22T06:23:40.360Z,16.00
2019-05-22T06:26:13.447Z,16.10
2019-05-22T06:28:44.190Z,16.10
2019-05-22T06:31:33.531Z,16.10
2019-05-22T06:34:05.684Z,16.10
2019-05-22T06:36:36.869Z,16.20
2019-05-22T06:39:10.047Z,16.20
2019-05-22T06:41:42.200Z,16.30
2019-05-22T06:44:31.282Z,16.40
2019-05-22T06:47:03.091Z,16.40
2019-05-22T06:49:35.901Z,16.60
2019-05-22T06:52:08.070Z,16.70
2019-05-22T06:54:38.548Z,16.90
2019-05-22T06:57:11.927Z,17.10
2019-05-22T06:59:43.615Z,17.30
2019-05-22T07:02:15.384Z,17.50
2019-05-22T07:04:46.258Z,17.60
2019-05-22T07:07:17.468Z,17.70
2019-05-22T07:09:47.420Z,17.80
2019-05-22T07:12:18.152Z,17.90
2019-05-22T07:15:08.652Z,18.00
2019-05-22T07:17:39.923Z,18.10
2019-05-22T07:20:11.171Z,18.20
2019-05-22T07:22:41.282Z,18.20
2019-05-22T07:25:12.021Z,18.20
2019-05-22T07:27:41.839Z,18.20
2019-05-22T07:30:11.551Z,18.30
2019-05-22T07:32:42.139Z,18.30
2019-05-22T07:35:13.185Z,18.30
2019-05-22T07:37:44.850Z,18.30
2019-05-22T07:40:14.907Z,18.30
2019-05-22T07:42:44.819Z,18.40
2019-05-22T07:45:15.370Z,18.60
2019-05-22T07:47:46.583Z,18.60
2019-05-22T07:50:17.631Z,18.70
2019-05-22T07:52:49.968Z,18.80
2019-05-22T07:55:22.034Z,18.90
2019-05-22T07:58:03.474Z,18.80
2019-05-22T08:00:33.621Z,18.70
2019-05-22T08:03:05.828Z,18.60
2019-05-22T08:05:38.953Z,18.60
2019-05-22T08:08:08.838Z,18.50
2019-05-22T08:10:39.618Z,18.60
2019-05-22T08:13:09.630Z,18.60
2019-05-22T08:15:39.481Z,18.70
2019-05-22T08:18:09.663Z,18.80
2019-05-22T08:20:40.005Z,18.90
2019-05-22T08:23:10.514Z,19.00
2019-05-22T08:25:40.675Z,19.20
2019-05-22T08:28:12.083Z,19.30
2019-05-22T08:30:42.227Z,19.40
2019-05-22T08:33:15.803Z,19.60
2019-05-22T08:35:45.547Z,19.70
2019-05-22T08:38:15.548Z,19.70
2019-05-22T08:40:47.618Z,19.70
2019-05-22T08:43:18.474Z,19.70
2019-05-22T08:45:48.495Z,19.60
2019-05-22T08:48:19.587Z,19.60
2019-05-22T08:50:50.113Z,19.50
2019-05-22T08:53:21.114Z,19.40
2019-05-22T08:55:50.975Z,19.30
2019-05-22T08:58:21.779Z,19.30
2019-05-22T09:00:51.620Z,19.30
2019-05-22T09:03:21.323Z,19.30
2019-05-22T09:05:52.031Z,19.30
2019-05-22T09:08:22.414Z,19.30
2019-05-22T09:10:52.275Z,19.20
2019-05-22T09:13:22.309Z,19.20
2019-05-22T09:15:52.553Z,19.20
2019-05-22T09:18:22.766Z,19.30
2019-05-22T09:20:52.714Z,19.40
2019-05-22T09:23:22.425Z,19.60
2019-05-22T09:25:52.669Z,19.50
2019-05-22T09:28:22.382Z,19.70
2019-05-22T09:30:52.118Z,19.70
2019-05-22T09:33:23.118Z,19.70
2019-05-22T09:35:53.165Z,19.60
2019-05-22T09:38:23.444Z,19.50
2019-05-22T09:40:53.400Z,19.50
2019-05-22T09:43:23.034Z,19.60
2019-05-22T09:45:52.742Z,19.80
2019-05-22T09:48:22.551Z,19.90
2019-05-22T09:50:52.266Z,19.90
2019-05-22T09:53:22.010Z,19.90
2019-05-22T09:55:51.749Z,19.90
2019-05-22T09:58:22.125Z,19.90
2019-05-22T10:00:52.364Z,19.80
2019-05-22T10:03:23.728Z,19.80
2019-05-22T10:05:53.557Z,19.80
2019-05-22T10:08:23.407Z,19.70
2019-05-22T10:10:53.548Z,19.70
2019-05-22T10:13:23.847Z,19.70
2019-05-22T10:15:53.698Z,19.70
2019-05-22T10:18:23.502Z,19.80
2019-05-22T10:20:53.755Z,19.80
2019-05-22T10:23:23.662Z,19.90
2019-05-22T10:25:53.375Z,19.90
2019-05-22T10:28:23.599Z,19.90
2019-05-22T10:30:54.441Z,19.90
2019-05-22T10:33:23.942Z,19.90
2019-05-22T10:35:53.906Z,20.00
2019-05-22T10:38:24.222Z,20.00
2019-05-22T10:40:58.281Z,20.00
2019-05-22T10:43:25.702Z,20.00
2019-05-22T10:45:55.858Z,19.90
2019-05-22T10:48:25.666Z,19.90
2019-05-22T10:50:55.379Z,19.80
2019-05-22T10:53:33.784Z,19.70
2019-05-22T10:55:57.081Z,19.60
2019-05-22T10:58:27.095Z,19.50
2019-05-22T11:00:56.859Z,19.50
2019-05-22T11:03:27.179Z,19.50
2019-05-22T11:06:07.280Z,19.50
2019-05-22T11:08:31.705Z,19.50
2019-05-22T11:10:59.782Z,19.50
2019-05-22T11:13:29.454Z,19.50
2019-05-22T11:15:59.224Z,19.60
2019-05-22T11:18:29.342Z,19.60
2019-05-22T11:20:59.582Z,19.60
2019-05-22T11:23:30.403Z,19.70
2019-05-22T11:26:00.247Z,19.70
2019-05-22T11:28:31.395Z,19.80
2019-05-22T11:31:03.516Z,19.80
2019-05-22T11:33:34.349Z,19.90
2019-05-22T11:36:04.671Z,19.90
2019-05-22T11:38:34.391Z,20.00
2019-05-22T11:41:04.730Z,20.10
2019-05-22T11:43:34.980Z,20.20
2019-05-22T11:46:05.711Z,20.20
2019-05-22T11:48:35.422Z,20.30
2019-05-22T11:51:05.680Z,20.40
2019-05-22T11:53:36.567Z,20.50
2019-05-22T11:56:07.511Z,20.60
2019-05-22T11:58:37.225Z,20.80
2019-05-22T12:01:07.076Z,21.00
2019-05-22T12:03:37.265Z,21.00
2019-05-22T12:06:08.035Z,21.00
2019-05-22T12:08:38.131Z,20.90
2019-05-22T12:11:09.514Z,20.90
2019-05-22T12:13:39.304Z,20.80
2019-05-22T12:16:09.066Z,20.70
2019-05-22T12:18:38.772Z,20.60
2019-05-22T12:21:08.487Z,20.50
2019-05-22T12:23:38.500Z,20.40
2019-05-22T12:26:09.319Z,20.40
2019-05-22T12:28:39.879Z,20.30
2019-05-22T12:31:09.783Z,20.30
2019-05-22T12:33:40.226Z,20.20
2019-05-22T12:36:12.306Z,20.00
2019-05-22T12:38:42.958Z,19.90
2019-05-22T12:41:13.367Z,19.70
2019-05-22T12:43:45.024Z,19.60
2019-05-22T12:46:15.032Z,19.50
2019-05-22T12:48:45.697Z,19.50
2019-05-22T12:51:15.606Z,19.40
2019-05-22T12:53:46.613Z,19.30
2019-05-22T12:56:16.912Z,19.30
2019-05-22T12:58:46.982Z,19.20
2019-05-22T13:01:18.598Z,19.20
2019-05-22T13:03:48.099Z,19.10
2019-05-22T13:06:17.726Z,19.10
2019-05-22T13:08:48.629Z,19.10
2019-05-22T13:11:18.380Z,19.00
2019-05-22T13:13:48.089Z,19.00
2019-05-22T13:16:18.491Z,19.00
2019-05-22T13:18:48.446Z,18.90
2019-05-22T13:21:20.740Z,18.80
2019-05-22T13:23:53.266Z,18.80
2019-05-22T13:26:25.408Z,18.80
2019-05-22T13:28:55.275Z,18.80
2019-05-22T13:31:25.723Z,18.90
2019-05-22T13:33:55.572Z,18.90
2019-05-22T13:36:25.279Z,18.90
2019-05-22T13:38:55.062Z,18.90
2019-05-22T13:41:24.729Z,18.90
2019-05-22T13:43:55.086Z,19.00
2019-05-22T13:46:24.991Z,19.00
2019-05-22T13:48:54.706Z,18.90
2019-05-22T13:51:24.522Z,18.90
2019-05-22T13:53:54.730Z,18.90
2019-05-22T13:56:25.575Z,18.90
2019-05-22T13:58:56.623Z,18.90
2019-05-22T14:01:27.275Z,18.90
2019-05-22T14:03:57.003Z,19.00
2019-05-22T14:06:26.742Z,19.00
2019-05-22T14:08:56.459Z,18.90
2019-05-22T14:11:26.640Z,18.70
2019-05-22T14:13:56.459Z,18.50
2019-05-22T14:16:26.867Z,18.40
2019-05-22T14:18:56.628Z,18.30
2019-05-22T14:21:26.347Z,18.20
2019-05-22T14:23:56.094Z,18.20
2019-05-22T14:26:29.294Z,18.10
2019-05-22T14:28:56.565Z,18.00
2019-05-22T14:31:26.282Z,17.90
2019-05-22T14:33:56.160Z,17.80
2019-05-22T14:36:26.879Z,17.70
2019-05-22T14:38:57.224Z,17.50
2019-05-22T14:41:26.934Z,17.40
2019-05-22T14:43:57.089Z,17.40
2019-05-22T14:46:26.814Z,17.30
2019-05-22T14:48:56.531Z,17.20
2019-05-22T14:51:27.001Z,17.20
2019-05-22T14:53:58.774Z,17.20
2019-05-22T14:56:28.855Z,17.10
2019-05-22T14:58:58.714Z,17.10
2019-05-22T15:01:29.037Z,17.00
2019-05-22T15:03:58.879Z,16.90
2019-05-22T15:06:28.698Z,16.80
2019-05-22T15:08:58.722Z,16.80
2019-05-22T15:11:28.643Z,16.60
2019-05-22T15:13:58.334Z,16.50
2019-05-22T15:16:28.099Z,16.40
2019-05-22T15:18:58.098Z,16.30
2019-05-22T15:21:28.159Z,16.20
2019-05-22T15:23:58.664Z,16.10
2019-05-22T15:26:28.405Z,16.10
2019-05-22T15:28:58.111Z,16.10
2019-05-22T15:31:28.097Z,16.10
2019-05-22T15:33:58.491Z,16.00
2019-05-22T15:36:29.143Z,16.00
2019-05-22T15:38:59.665Z,16.10
2019-05-22T15:41:29.660Z,16.10
2019-05-22T15:43:59.857Z,16.00
2019-05-22T15:46:31.175Z,16.00
2019-05-22T15:49:02.346Z,15.90
2019-05-22T15:51:35.858Z,15.80
2019-05-22T15:54:08.954Z,15.80
2019-05-22T15:56:40.095Z,15.70
2019-05-22T15:59:11.796Z,15.70
2019-05-22T16:01:41.966Z,15.60
2019-05-22T16:04:14.865Z,15.60
2019-05-22T16:06:48.211Z,15.50
2019-05-22T16:09:17.941Z,15.40
2019-05-22T16:11:51.101Z,15.40
2019-05-22T16:14:22.101Z,15.30
2019-05-22T16:16:52.454Z,15.30
2019-05-22T16:19:25.478Z,15.30
2019-05-22T16:21:59.704Z,15.20
2019-05-22T16:24:29.830Z,15.10
2019-05-22T16:27:00.754Z,15.10
2019-05-22T16:29:31.759Z,15.10
2019-05-22T16:32:07.133Z,15.00
2019-05-22T16:34:37.526Z,15.00
2019-05-22T16:37:13.526Z,15.00
2019-05-22T16:39:44.132Z,15.00
2019-05-22T16:42:18.696Z,14.90
2019-05-22T16:44:50.133Z,14.90
2019-05-22T16:47:21.511Z,14.80
2019-05-22T16:49:53.137Z,14.80
2019-05-22T16:52:34.027Z,14.80
2019-05-22T16:55:07.136Z,14.80
2019-05-22T16:57:38.286Z,14.80
2019-05-22T17:00:11.166Z,14.70
2019-05-22T17:02:42.134Z,14.70
2019-05-22T17:05:15.239Z,14.70
2019-05-22T17:07:46.003Z,14.70
2019-05-22T17:10:17.011Z,14.70
2019-05-22T17:12:46.895Z,14.70
2019-05-22T17:15:20.503Z,14.70
2019-05-22T17:17:50.465Z,14.60
2019-05-22T17:20:23.979Z,14.60
2019-05-22T17:22:55.020Z,14.60
2019-05-22T17:25:25.530Z,14.60
2019-05-22T17:27:56.590Z,14.60
2019-05-22T17:30:30.246Z,14.50
2019-05-22T17:33:02.293Z,14.50
2019-05-22T17:35:34.284Z,14.50
2019-05-22T17:38:05.691Z,14.50
2019-05-22T17:40:37.195Z,14.50
2019-05-22T17:43:10.416Z,14.40
2019-05-22T17:45:43.023Z,14.40
2019-05-22T17:48:14.830Z,14.40
2019-05-22T17:50:47.241Z,14.40
2019-05-22T17:53:19.064Z,14.30
2019-05-22T17:55:49.341Z,14.30
2019-05-22T17:58:19.233Z,14.30
2019-05-22T18:00:50.640Z,14.30
2019-05-22T18:03:20.502Z,14.20
2019-05-22T18:05:53.509Z,14.20
2019-05-22T18:08:24.841Z,14.20
2019-05-22T18:10:58.668Z,14.20
2019-05-22T18:13:28.907Z,14.10
2019-05-22T18:15:58.669Z,14.10
2019-05-22T18:18:28.466Z,14.00
2019-05-22T18:20:58.104Z,14.00
2019-05-22T18:23:27.823Z,14.00
2019-05-22T18:25:57.563Z,14.00
2019-05-22T18:28:27.268Z,13.90
2019-05-22T18:30:57.281Z,13.90
2019-05-22T18:33:27.107Z,13.90
2019-05-22T18:35:56.770Z,13.90
2019-05-22T18:38:26.574Z,13.90
2019-05-22T18:40:56.334Z,13.90
2019-05-22T18:43:26.147Z,13.90
2019-05-22T18:45:56.223Z,13.90
2019-05-22T18:48:25.971Z,13.90
2019-05-22T18:50:55.782Z,13.90
2019-05-22T18:53:25.975Z,13.90
2019-05-22T18:55:55.652Z,13.90
2019-05-22T18:58:25.975Z,13.90
2019-05-22T19:00:55.810Z,13.90
2019-05-22T19:03:25.623Z,13.90
2019-05-22T19:05:55.555Z,13.90
2019-05-22T19:08:25.367Z,13.90
2019-05-22T19:10:55.215Z,13.90
2019-05-22T19:13:25.027Z,13.90
2019-05-22T19:15:54.867Z,13.90
2019-05-22T19:18:24.691Z,13.90
2019-05-22T19:20:54.943Z,13.90
2019-05-22T19:23:24.754Z,13.90
2019-05-22T19:25:54.463Z,13.90
2019-05-22T19:28:41.736Z,13.80
2019-05-22T19:30:55.057Z,13.90
2019-05-22T19:33:24.711Z,13.90
2019-05-22T19:35:55.261Z,13.80
2019-05-22T19:38:25.221Z,13.80
2019-05-22T19:40:55.218Z,13.80
2019-05-22T19:43:24.966Z,13.80
2019-05-22T19:45:54.771Z,13.90
2019-05-22T19:48:25.483Z,13.90
2019-05-22T19:50:55.713Z,13.90
2019-05-22T19:53:25.779Z,13.80
2019-05-22T19:55:56.085Z,13.90
2019-05-22T19:58:26.818Z,13.80
2019-05-22T20:00:57.034Z,13.80
2019-05-22T20:03:27.978Z,13.80
2019-05-22T20:05:57.792Z,13.80
2019-05-22T20:08:27.508Z,13.80
2019-05-22T20:10:57.314Z,13.80
2019-05-22T20:13:27.166Z,13.80
2019-05-22T20:15:57.175Z,13.70
2019-05-22T20:18:27.317Z,13.70
2019-05-22T20:20:58.390Z,13.70
2019-05-22T20:23:35.993Z,13.70
2019-05-22T20:26:01.019Z,13.70
2019-05-22T20:28:31.418Z,13.70
2019-05-22T20:31:01.451Z,13.70
2019-05-22T20:33:31.190Z,13.60
2019-05-22T20:36:00.999Z,13.70
2019-05-22T20:38:31.180Z,13.70
2019-05-22T20:41:01.080Z,13.60
2019-05-22T20:43:31.922Z,13.60
2019-05-22T20:46:02.181Z,13.60
2019-05-22T20:48:33.236Z,13.60
2019-05-22T20:51:04.446Z,13.60
2019-05-22T20:53:52.320Z,13.60
2019-05-22T20:56:08.240Z,13.60
2019-05-22T20:58:39.546Z,13.60
2019-05-22T21:01:10.993Z,13.60
2019-05-22T21:03:40.750Z,13.60
2019-05-22T21:06:14.342Z,13.60
2019-05-22T21:08:47.083Z,13.60
2019-05-22T21:11:19.475Z,13.60
2019-05-22T21:13:49.210Z,13.50
2019-05-22T21:16:19.974Z,13.50
2019-05-22T21:18:51.890Z,13.50
2019-05-22T21:21:23.179Z,13.50
2019-05-22T21:23:53.025Z,13.50
2019-05-22T21:26:23.007Z,13.50
2019-05-22T21:28:53.337Z,13.50
2019-05-22T21:31:23.242Z,13.50
2019-05-22T21:33:53.886Z,13.50
2019-05-22T21:36:23.707Z,13.50
2019-05-22T21:38:53.967Z,13.50
2019-05-22T21:41:24.277Z,13.50
2019-05-22T21:43:54.808Z,13.50
2019-05-22T21:46:25.515Z,13.50
2019-05-22T21:48:56.930Z,13.50
2019-05-22T21:51:26.941Z,13.50
2019-05-22T21:53:57.495Z,13.50
2019-05-22T21:56:28.802Z,13.50
2019-05-22T21:58:58.638Z,13.50
2019-05-22T22:01:30.023Z,13.50
2019-05-22T22:04:05.515Z,13.50
2019-05-22T22:06:35.221Z,13.50
2019-05-22T22:09:07.956Z,13.50
2019-05-22T22:11:37.761Z,13.50
2019-05-22T22:14:08.007Z,13.50
2019-05-22T22:16:39.290Z,13.40
2019-05-22T22:19:10.726Z,13.40
2019-05-22T22:21:40.740Z,13.50
2019-05-22T22:24:10.818Z,13.40
2019-05-22T22:26:40.610Z,13.40
2019-05-22T22:29:10.658Z,13.40
2019-05-22T22:31:42.677Z,13.40
2019-05-22T22:34:21.083Z,13.40
2019-05-22T22:36:50.787Z,13.40
2019-05-22T22:39:21.755Z,13.40
2019-05-22T22:41:52.264Z,13.30
2019-05-22T22:44:22.693Z,13.30
2019-05-22T22:46:57.330Z,13.30
2019-05-22T22:49:28.071Z,13.30
2019-05-22T22:51:59.182Z,13.30
2019-05-22T22:54:28.871Z,13.30
2019-05-22T22:56:59.975Z,13.20
2019-05-22T22:59:30.511Z,13.30
2019-05-22T23:02:03.586Z,13.20
2019-05-22T23:04:34.324Z,13.20
2019-05-22T23:07:05.740Z,13.20
2019-05-22T23:09:38.802Z,13.20
2019-05-22T23:12:09.917Z,13.20
2019-05-22T23:14:42.629Z,13.20
2019-05-22T23:17:13.644Z,13.20
2019-05-22T23:19:43.743Z,13.30
2019-05-22T23:22:19.463Z,13.20
2019-05-22T23:24:49.615Z,13.20
2019-05-22T23:27:19.317Z,13.20
2019-05-22T23:29:49.058Z,13.20
2019-05-22T23:32:19.178Z,13.20
2019-05-22T23:34:50.119Z,13.20
2019-05-22T23:37:22.423Z,13.20
2019-05-22T23:39:53.378Z,13.20
2019-05-22T23:42:27.122Z,13.20
2019-05-22T23:44:59.059Z,13.20
2019-05-22T23:47:30.360Z,13.10
2019-05-22T23:50:00.606Z,13.10
2019-05-22T23:52:31.115Z,13.10
2019-05-22T23:55:01.529Z,13.10
2019-05-22T23:57:32.075Z,13.10
